sensor_id;sensor_type;location;lat;lon;timestamp;temperature;humidity
2409;DHT22;8463;48.094;7.970;2023-02-05T00:02:14;2.30;70.00
2409;DHT22;8463;48.094;7.970;2023-02-05T00:04:40;2.30;70.00
2409;DHT22;8463;48.094;7.970;2023-02-05T00:07:05;2.30;70.30
2409;DHT22;8463;48.094;7.970;2023-02-05T00:09:31;2.30;70.90
2409;DHT22;8463;48.094;7.970;2023-02-05T00:11:58;2.30;70.30
2409;DHT22;8463;48.094;7.970;2023-02-05T00:14:24;2.20;70.80
2409;DHT22;8463;48.094;7.970;2023-02-05T00:16:51;2.20;71.00
2409;DHT22;8463;48.094;7.970;2023-02-05T00:19:19;2.20;71.30
2409;DHT22;8463;48.094;7.970;2023-02-05T00:21:45;2.20;71.30
2409;DHT22;8463;48.094;7.970;2023-02-05T00:24:11;2.20;71.20
2409;DHT22;8463;48.094;7.970;2023-02-05T00:26:40;2.20;71.00
2409;DHT22;8463;48.094;7.970;2023-02-05T00:29:05;2.10;70.90
2409;DHT22;8463;48.094;7.970;2023-02-05T00:31:31;2.10;71.00
2409;DHT22;8463;48.094;7.970;2023-02-05T00:33:57;2.10;70.80
2409;DHT22;8463;48.094;7.970;2023-02-05T00:36:23;2.10;71.00
2409;DHT22;8463;48.094;7.970;2023-02-05T00:38:49;2.10;71.10
2409;DHT22;8463;48.094;7.970;2023-02-05T00:41:19;2.10;71.80
2409;DHT22;8463;48.094;7.970;2023-02-05T00:43:44;2.10;71.10
2409;DHT22;8463;48.094;7.970;2023-02-05T00:46:12;2.10;71.40
2409;DHT22;8463;48.094;7.970;2023-02-05T00:48:38;2.10;71.30
2409;DHT22;8463;48.094;7.970;2023-02-05T00:51:04;2.10;71.10
2409;DHT22;8463;48.094;7.970;2023-02-05T00:53:30;2.00;70.70
2409;DHT22;8463;48.094;7.970;2023-02-05T00:55:55;2.00;70.80
2409;DHT22;8463;48.094;7.970;2023-02-05T00:58:21;2.00;70.90
2409;DHT22;8463;48.094;7.970;2023-02-05T01:00:49;2.00;71.00
2409;DHT22;8463;48.094;7.970;2023-02-05T01:03:15;2.00;70.70
2409;DHT22;8463;48.094;7.970;2023-02-05T01:05:41;2.00;70.50
2409;DHT22;8463;48.094;7.970;2023-02-05T01:08:09;2.00;70.20
2409;DHT22;8463;48.094;7.970;2023-02-05T01:10:35;1.90;70.10
2409;DHT22;8463;48.094;7.970;2023-02-05T01:13:04;1.80;70.30
2409;DHT22;8463;48.094;7.970;2023-02-05T01:15:30;1.80;70.40
2409;DHT22;8463;48.094;7.970;2023-02-05T01:17:56;1.80;70.80
2409;DHT22;8463;48.094;7.970;2023-02-05T01:20:24;1.80;71.50
2409;DHT22;8463;48.094;7.970;2023-02-05T01:22:49;1.80;71.60
2409;DHT22;8463;48.094;7.970;2023-02-05T01:25:15;1.80;71.50
2409;DHT22;8463;48.094;7.970;2023-02-05T01:27:41;1.90;71.30
2409;DHT22;8463;48.094;7.970;2023-02-05T01:30:07;1.80;71.20
2409;DHT22;8463;48.094;7.970;2023-02-05T01:32:33;1.80;71.00
2409;DHT22;8463;48.094;7.970;2023-02-05T01:34:59;1.80;70.40
2409;DHT22;8463;48.094;7.970;2023-02-05T01:37:25;1.70;70.20
2409;DHT22;8463;48.094;7.970;2023-02-05T01:39:51;1.70;70.30
2409;DHT22;8463;48.094;7.970;2023-02-05T01:42:23;1.70;70.70
2409;DHT22;8463;48.094;7.970;2023-02-05T01:47:50;1.70;69.50
2409;DHT22;8463;48.094;7.970;2023-02-05T01:50:40;1.60;69.40
2409;DHT22;8463;48.094;7.970;2023-02-05T01:53:10;1.60;69.60
2409;DHT22;8463;48.094;7.970;2023-02-05T01:55:50;1.50;70.00
2409;DHT22;8463;48.094;7.970;2023-02-05T01:58:16;1.50;70.20
2409;DHT22;8463;48.094;7.970;2023-02-05T02:00:42;1.50;70.50
2409;DHT22;8463;48.094;7.970;2023-02-05T02:03:10;1.60;70.70
2409;DHT22;8463;48.094;7.970;2023-02-05T02:05:36;1.50;70.20
2409;DHT22;8463;48.094;7.970;2023-02-05T02:08:02;1.50;70.70
2409;DHT22;8463;48.094;7.970;2023-02-05T02:10:28;1.60;70.70
2409;DHT22;8463;48.094;7.970;2023-02-05T02:12:55;1.60;70.90
2409;DHT22;8463;48.094;7.970;2023-02-05T02:15:23;1.60;70.10
2409;DHT22;8463;48.094;7.970;2023-02-05T02:17:52;1.60;70.50
2409;DHT22;8463;48.094;7.970;2023-02-05T02:20:22;1.70;70.70
2409;DHT22;8463;48.094;7.970;2023-02-05T02:28:10;1.60;69.70
2409;DHT22;8463;48.094;7.970;2023-02-05T02:30:44;1.60;69.40
2409;DHT22;8463;48.094;7.970;2023-02-05T02:33:13;1.70;69.50
2409;DHT22;8463;48.094;7.970;2023-02-05T02:39:05;1.70;69.50
2409;DHT22;8463;48.094;7.970;2023-02-05T02:43:53;1.70;68.90
2409;DHT22;8463;48.094;7.970;2023-02-05T02:46:28;1.70;68.90
2409;DHT22;8463;48.094;7.970;2023-02-05T02:48:57;1.70;69.00
2409;DHT22;8463;48.094;7.970;2023-02-05T02:51:26;1.70;68.70
2409;DHT22;8463;48.094;7.970;2023-02-05T02:53:55;1.70;68.60
2409;DHT22;8463;48.094;7.970;2023-02-05T02:56:24;1.70;68.90
2409;DHT22;8463;48.094;7.970;2023-02-05T02:58:55;1.80;68.60
2409;DHT22;8463;48.094;7.970;2023-02-05T03:01:24;1.80;68.60
2409;DHT22;8463;48.094;7.970;2023-02-05T03:03:58;1.80;67.70
2409;DHT22;8463;48.094;7.970;2023-02-05T03:06:25;1.80;67.50
2409;DHT22;8463;48.094;7.970;2023-02-05T03:09:00;1.70;66.50
2409;DHT22;8463;48.094;7.970;2023-02-05T03:11:29;1.70;66.70
2409;DHT22;8463;48.094;7.970;2023-02-05T03:13:55;1.80;66.80
2409;DHT22;8463;48.094;7.970;2023-02-05T03:16:21;1.80;66.30
2409;DHT22;8463;48.094;7.970;2023-02-05T03:18:48;1.70;65.90
2409;DHT22;8463;48.094;7.970;2023-02-05T03:21:23;1.70;65.90
2409;DHT22;8463;48.094;7.970;2023-02-05T03:23:49;1.70;65.80
2409;DHT22;8463;48.094;7.970;2023-02-05T03:26:24;1.70;65.80
2409;DHT22;8463;48.094;7.970;2023-02-05T03:28:51;1.60;65.30
2409;DHT22;8463;48.094;7.970;2023-02-05T03:31:21;1.60;65.20
2409;DHT22;8463;48.094;7.970;2023-02-05T03:37:12;1.60;65.40
2409;DHT22;8463;48.094;7.970;2023-02-05T03:53:29;1.30;66.60
2409;DHT22;8463;48.094;7.970;2023-02-05T03:56:17;1.40;66.50
2409;DHT22;8463;48.094;7.970;2023-02-05T03:58:47;1.40;66.40
2409;DHT22;8463;48.094;7.970;2023-02-05T04:01:14;1.30;65.50
2409;DHT22;8463;48.094;7.970;2023-02-05T04:03:40;1.30;65.80
2409;DHT22;8463;48.094;7.970;2023-02-05T04:06:06;1.30;65.90
2409;DHT22;8463;48.094;7.970;2023-02-05T04:08:32;1.20;66.00
2409;DHT22;8463;48.094;7.970;2023-02-05T04:10:58;1.20;65.70
2409;DHT22;8463;48.094;7.970;2023-02-05T04:13:23;1.20;66.50
2409;DHT22;8463;48.094;7.970;2023-02-05T04:15:49;1.20;66.90
2409;DHT22;8463;48.094;7.970;2023-02-05T04:18:15;1.20;67.10
2409;DHT22;8463;48.094;7.970;2023-02-05T04:20:41;1.20;67.80
2409;DHT22;8463;48.094;7.970;2023-02-05T04:23:07;1.20;68.10
2409;DHT22;8463;48.094;7.970;2023-02-05T04:25:32;1.30;68.00
2409;DHT22;8463;48.094;7.970;2023-02-05T04:28:00;1.30;67.70
2409;DHT22;8463;48.094;7.970;2023-02-05T04:30:26;1.40;67.70
2409;DHT22;8463;48.094;7.970;2023-02-05T04:32:51;1.40;68.00
2409;DHT22;8463;48.094;7.970;2023-02-05T04:35:17;1.50;67.90
2409;DHT22;8463;48.094;7.970;2023-02-05T04:37:42;1.50;67.30
2409;DHT22;8463;48.094;7.970;2023-02-05T04:40:08;1.40;67.50
2409;DHT22;8463;48.094;7.970;2023-02-05T04:42:34;1.30;67.30
2409;DHT22;8463;48.094;7.970;2023-02-05T04:45:00;1.30;68.30
2409;DHT22;8463;48.094;7.970;2023-02-05T04:47:25;1.40;68.80
2409;DHT22;8463;48.094;7.970;2023-02-05T04:49:51;1.50;69.00
2409;DHT22;8463;48.094;7.970;2023-02-05T04:52:16;1.50;68.60
2409;DHT22;8463;48.094;7.970;2023-02-05T04:54:42;1.50;68.70
2409;DHT22;8463;48.094;7.970;2023-02-05T04:57:07;1.50;69.10
2409;DHT22;8463;48.094;7.970;2023-02-05T04:59:33;1.60;69.40
2409;DHT22;8463;48.094;7.970;2023-02-05T05:01:59;1.70;69.50
2409;DHT22;8463;48.094;7.970;2023-02-05T05:04:25;1.60;68.60
2409;DHT22;8463;48.094;7.970;2023-02-05T05:06:50;1.70;68.40
2409;DHT22;8463;48.094;7.970;2023-02-05T05:09:16;1.70;68.50
2409;DHT22;8463;48.094;7.970;2023-02-05T05:11:45;1.70;68.40
2409;DHT22;8463;48.094;7.970;2023-02-05T05:14:10;1.80;68.80
2409;DHT22;8463;48.094;7.970;2023-02-05T05:16:36;1.70;67.70
2409;DHT22;8463;48.094;7.970;2023-02-05T05:19:02;1.70;68.30
2409;DHT22;8463;48.094;7.970;2023-02-05T05:21:27;1.60;68.00
2409;DHT22;8463;48.094;7.970;2023-02-05T05:23:53;1.60;68.80
2409;DHT22;8463;48.094;7.970;2023-02-05T05:26:18;1.70;69.50
2409;DHT22;8463;48.094;7.970;2023-02-05T05:28:44;1.80;69.60
2409;DHT22;8463;48.094;7.970;2023-02-05T05:31:13;1.90;69.60
2409;DHT22;8463;48.094;7.970;2023-02-05T05:33:39;1.90;69.60
2409;DHT22;8463;48.094;7.970;2023-02-05T05:36:05;2.00;69.30
2409;DHT22;8463;48.094;7.970;2023-02-05T05:38:31;2.00;69.00
2409;DHT22;8463;48.094;7.970;2023-02-05T05:40:57;2.10;68.80
2409;DHT22;8463;48.094;7.970;2023-02-05T05:43:41;2.10;68.70
2409;DHT22;8463;48.094;7.970;2023-02-05T05:46:14;2.20;68.40
2409;DHT22;8463;48.094;7.970;2023-02-05T05:48:40;2.20;68.10
2409;DHT22;8463;48.094;7.970;2023-02-05T05:51:06;2.10;66.10
2409;DHT22;8463;48.094;7.970;2023-02-05T05:53:32;2.00;67.00
2409;DHT22;8463;48.094;7.970;2023-02-05T05:55:58;2.00;67.60
2409;DHT22;8463;48.094;7.970;2023-02-05T05:58:23;2.10;68.60
2409;DHT22;8463;48.094;7.970;2023-02-05T06:00:49;2.10;68.00
2409;DHT22;8463;48.094;7.970;2023-02-05T06:03:15;2.20;67.90
2409;DHT22;8463;48.094;7.970;2023-02-05T06:05:40;2.20;67.90
2409;DHT22;8463;48.094;7.970;2023-02-05T06:08:06;2.20;67.10
2409;DHT22;8463;48.094;7.970;2023-02-05T06:10:32;2.20;67.20
2409;DHT22;8463;48.094;7.970;2023-02-05T06:12:58;2.20;67.20
2409;DHT22;8463;48.094;7.970;2023-02-05T06:15:24;2.20;67.20
2409;DHT22;8463;48.094;7.970;2023-02-05T06:17:51;2.20;67.20
2409;DHT22;8463;48.094;7.970;2023-02-05T06:20:17;2.20;67.40
2409;DHT22;8463;48.094;7.970;2023-02-05T06:22:43;2.30;67.60
2409;DHT22;8463;48.094;7.970;2023-02-05T06:25:09;2.30;67.50
2409;DHT22;8463;48.094;7.970;2023-02-05T06:27:35;2.30;67.20
2409;DHT22;8463;48.094;7.970;2023-02-05T06:30:00;2.30;67.10
2409;DHT22;8463;48.094;7.970;2023-02-05T06:32:26;2.30;67.30
2409;DHT22;8463;48.094;7.970;2023-02-05T06:34:51;2.30;67.50
2409;DHT22;8463;48.094;7.970;2023-02-05T06:37:17;2.40;67.20
2409;DHT22;8463;48.094;7.970;2023-02-05T06:39:43;2.40;67.00
2409;DHT22;8463;48.094;7.970;2023-02-05T06:42:08;2.40;67.10
2409;DHT22;8463;48.094;7.970;2023-02-05T06:44:34;2.30;67.00
2409;DHT22;8463;48.094;7.970;2023-02-05T06:47:00;2.40;67.10
2409;DHT22;8463;48.094;7.970;2023-02-05T06:49:26;2.30;67.00
2409;DHT22;8463;48.094;7.970;2023-02-05T06:51:52;2.40;67.20
2409;DHT22;8463;48.094;7.970;2023-02-05T06:54:17;2.40;66.40
2409;DHT22;8463;48.094;7.970;2023-02-05T06:56:43;2.40;66.40
2409;DHT22;8463;48.094;7.970;2023-02-05T06:59:09;2.40;66.50
2409;DHT22;8463;48.094;7.970;2023-02-05T07:01:35;2.40;66.70
2409;DHT22;8463;48.094;7.970;2023-02-05T07:04:00;2.40;66.60
2409;DHT22;8463;48.094;7.970;2023-02-05T07:06:26;2.40;66.90
2409;DHT22;8463;48.094;7.970;2023-02-05T07:08:53;2.40;67.40
2409;DHT22;8463;48.094;7.970;2023-02-05T07:11:20;2.40;67.50
2409;DHT22;8463;48.094;7.970;2023-02-05T07:13:45;2.40;67.70
2409;DHT22;8463;48.094;7.970;2023-02-05T07:16:11;2.40;67.80
2409;DHT22;8463;48.094;7.970;2023-02-05T07:18:37;2.40;67.20
2409;DHT22;8463;48.094;7.970;2023-02-05T07:21:07;2.40;67.20
2409;DHT22;8463;48.094;7.970;2023-02-05T07:23:33;2.40;67.30
2409;DHT22;8463;48.094;7.970;2023-02-05T07:26:11;2.50;67.30
2409;DHT22;8463;48.094;7.970;2023-02-05T07:28:37;2.50;67.50
2409;DHT22;8463;48.094;7.970;2023-02-05T07:31:04;2.50;67.50
2409;DHT22;8463;48.094;7.970;2023-02-05T07:33:31;2.50;67.10
2409;DHT22;8463;48.094;7.970;2023-02-05T07:35:57;2.50;67.40
2409;DHT22;8463;48.094;7.970;2023-02-05T07:38:22;2.50;66.60
2409;DHT22;8463;48.094;7.970;2023-02-05T07:40:51;2.50;67.30
2409;DHT22;8463;48.094;7.970;2023-02-05T07:43:17;2.50;67.60
2409;DHT22;8463;48.094;7.970;2023-02-05T07:45:42;2.50;67.60
2409;DHT22;8463;48.094;7.970;2023-02-05T07:48:08;3.40;76.00
2409;DHT22;8463;48.094;7.970;2023-02-05T07:50:33;4.60;78.00
2409;DHT22;8463;48.094;7.970;2023-02-05T07:52:59;5.30;79.60
2409;DHT22;8463;48.094;7.970;2023-02-05T07:55:25;5.00;71.10
2409;DHT22;8463;48.094;7.970;2023-02-05T07:57:50;4.60;67.40
2409;DHT22;8463;48.094;7.970;2023-02-05T08:00:16;4.30;66.60
2409;DHT22;8463;48.094;7.970;2023-02-05T08:02:42;4.00;66.70
2409;DHT22;8463;48.094;7.970;2023-02-05T08:05:07;3.60;64.20
2409;DHT22;8463;48.094;7.970;2023-02-05T08:07:33;3.40;64.20
2409;DHT22;8463;48.094;7.970;2023-02-05T08:09:59;3.30;65.00
2409;DHT22;8463;48.094;7.970;2023-02-05T08:12:24;3.20;64.90
2409;DHT22;8463;48.094;7.970;2023-02-05T08:14:50;3.10;65.20
2409;DHT22;8463;48.094;7.970;2023-02-05T08:17:17;3.00;65.30
2409;DHT22;8463;48.094;7.970;2023-02-05T08:19:42;3.00;65.90
2409;DHT22;8463;48.094;7.970;2023-02-05T08:22:08;3.00;66.10
2409;DHT22;8463;48.094;7.970;2023-02-05T08:24:33;3.00;66.80
2409;DHT22;8463;48.094;7.970;2023-02-05T08:26:59;2.90;67.10
2409;DHT22;8463;48.094;7.970;2023-02-05T08:29:25;2.90;67.30
2409;DHT22;8463;48.094;7.970;2023-02-05T08:31:50;2.90;67.10
2409;DHT22;8463;48.094;7.970;2023-02-05T08:34:16;2.80;66.70
2409;DHT22;8463;48.094;7.970;2023-02-05T08:36:42;2.80;68.80
2409;DHT22;8463;48.094;7.970;2023-02-05T08:39:07;2.70;69.20
2409;DHT22;8463;48.094;7.970;2023-02-05T08:41:33;2.80;70.40
2409;DHT22;8463;48.094;7.970;2023-02-05T08:44:00;2.90;70.50
2409;DHT22;8463;48.094;7.970;2023-02-05T08:46:25;3.00;70.50
2409;DHT22;8463;48.094;7.970;2023-02-05T08:48:51;3.00;70.50
2409;DHT22;8463;48.094;7.970;2023-02-05T08:51:18;3.00;69.60
2409;DHT22;8463;48.094;7.970;2023-02-05T08:53:44;3.10;69.70
2409;DHT22;8463;48.094;7.970;2023-02-05T08:56:11;3.10;70.00
2409;DHT22;8463;48.094;7.970;2023-02-05T08:58:39;3.20;69.70
2409;DHT22;8463;48.094;7.970;2023-02-05T09:01:07;3.20;69.60
2409;DHT22;8463;48.094;7.970;2023-02-05T09:03:35;3.20;69.20
2409;DHT22;8463;48.094;7.970;2023-02-05T09:06:07;3.30;69.10
2409;DHT22;8463;48.094;7.970;2023-02-05T09:08:33;3.30;69.00
2409;DHT22;8463;48.094;7.970;2023-02-05T09:10:59;3.30;69.10
2409;DHT22;8463;48.094;7.970;2023-02-05T09:13:25;3.30;69.10
2409;DHT22;8463;48.094;7.970;2023-02-05T09:15:51;3.40;69.40
2409;DHT22;8463;48.094;7.970;2023-02-05T09:18:17;3.40;69.00
2409;DHT22;8463;48.094;7.970;2023-02-05T09:20:45;3.50;69.00
2409;DHT22;8463;48.094;7.970;2023-02-05T09:23:12;3.50;68.90
2409;DHT22;8463;48.094;7.970;2023-02-05T09:25:39;3.60;68.50
2409;DHT22;8463;48.094;7.970;2023-02-05T09:28:07;3.50;67.60
2409;DHT22;8463;48.094;7.970;2023-02-05T09:30:35;3.50;67.60
2409;DHT22;8463;48.094;7.970;2023-02-05T09:33:00;3.50;68.20
2409;DHT22;8463;48.094;7.970;2023-02-05T09:35:30;3.50;69.00
2409;DHT22;8463;48.094;7.970;2023-02-05T09:37:55;3.50;69.50
2409;DHT22;8463;48.094;7.970;2023-02-05T09:40:28;3.40;69.30
2409;DHT22;8463;48.094;7.970;2023-02-05T09:43:06;3.30;70.10
2409;DHT22;8463;48.094;7.970;2023-02-05T09:45:55;3.30;70.30
2409;DHT22;8463;48.094;7.970;2023-02-05T09:51:24;3.50;70.90
2409;DHT22;8463;48.094;7.970;2023-02-05T09:53:55;3.50;70.90
2409;DHT22;8463;48.094;7.970;2023-02-05T09:56:26;3.60;71.00
2409;DHT22;8463;48.094;7.970;2023-02-05T09:58:54;3.70;71.10
2409;DHT22;8463;48.094;7.970;2023-02-05T10:01:56;3.70;71.10
2409;DHT22;8463;48.094;7.970;2023-02-05T10:04:14;3.70;71.10
2409;DHT22;8463;48.094;7.970;2023-02-05T10:12:51;3.70;69.60
2409;DHT22;8463;48.094;7.970;2023-02-05T10:15:25;3.70;69.70
2409;DHT22;8463;48.094;7.970;2023-02-05T10:23:10;3.70;68.90
2409;DHT22;8463;48.094;7.970;2023-02-05T10:25:40;3.60;69.20
2409;DHT22;8463;48.094;7.970;2023-02-05T10:33:53;3.40;72.10
2409;DHT22;8463;48.094;7.970;2023-02-05T10:36:25;3.30;72.00
2409;DHT22;8463;48.094;7.970;2023-02-05T10:38:53;3.30;73.40
2409;DHT22;8463;48.094;7.970;2023-02-05T10:44:20;3.50;73.60
2409;DHT22;8463;48.094;7.970;2023-02-05T10:46:51;3.60;73.90
2409;DHT22;8463;48.094;7.970;2023-02-05T10:49:25;3.60;73.80
2409;DHT22;8463;48.094;7.970;2023-02-05T10:51:53;3.70;73.90
2409;DHT22;8463;48.094;7.970;2023-02-05T10:54:25;3.70;73.90
2409;DHT22;8463;48.094;7.970;2023-02-05T10:56:51;3.80;74.00
2409;DHT22;8463;48.094;7.970;2023-02-05T10:59:29;3.80;74.60
2409;DHT22;8463;48.094;7.970;2023-02-05T11:01:59;3.90;74.00
2409;DHT22;8463;48.094;7.970;2023-02-05T11:04:45;3.90;74.30
2409;DHT22;8463;48.094;7.970;2023-02-05T11:12:47;3.60;74.50
2409;DHT22;8463;48.094;7.970;2023-02-05T11:15:24;3.60;74.60
2409;DHT22;8463;48.094;7.970;2023-02-05T11:17:52;3.70;74.70
2409;DHT22;8463;48.094;7.970;2023-02-05T11:22:44;3.70;74.70
2409;DHT22;8463;48.094;7.970;2023-02-05T11:25:17;3.80;75.10
2409;DHT22;8463;48.094;7.970;2023-02-05T11:27:55;3.80;75.30
2409;DHT22;8463;48.094;7.970;2023-02-05T11:30:33;3.90;75.40
2409;DHT22;8463;48.094;7.970;2023-02-05T11:36:05;3.90;75.40
2409;DHT22;8463;48.094;7.970;2023-02-05T11:39:01;4.00;75.60
2409;DHT22;8463;48.094;7.970;2023-02-05T11:41:35;4.00;75.50
2409;DHT22;8463;48.094;7.970;2023-02-05T11:44:41;4.10;75.40
2409;DHT22;8463;48.094;7.970;2023-02-05T11:47:11;4.10;75.20
2409;DHT22;8463;48.094;7.970;2023-02-05T11:49:49;4.20;75.30
2409;DHT22;8463;48.094;7.970;2023-02-05T11:52:26;4.10;75.20
2409;DHT22;8463;48.094;7.970;2023-02-05T11:54:53;4.20;75.20
2409;DHT22;8463;48.094;7.970;2023-02-05T11:57:28;4.20;75.20
2409;DHT22;8463;48.094;7.970;2023-02-05T11:59:57;4.20;75.20
2409;DHT22;8463;48.094;7.970;2023-02-05T12:02:29;4.30;75.20
2409;DHT22;8463;48.094;7.970;2023-02-05T12:08:10;4.30;75.20
2409;DHT22;8463;48.094;7.970;2023-02-05T12:10:46;4.30;75.20
2409;DHT22;8463;48.094;7.970;2023-02-05T12:13:19;4.30;75.20
2409;DHT22;8463;48.094;7.970;2023-02-05T12:18:55;4.30;75.10
2409;DHT22;8463;48.094;7.970;2023-02-05T12:22:15;4.30;75.20
2409;DHT22;8463;48.094;7.970;2023-02-05T12:50:00;4.50;75.00
2409;DHT22;8463;48.094;7.970;2023-02-05T12:52:41;4.60;75.00
2409;DHT22;8463;48.094;7.970;2023-02-05T12:58:02;4.60;74.60
2409;DHT22;8463;48.094;7.970;2023-02-05T13:06:03;4.70;75.00
2409;DHT22;8463;48.094;7.970;2023-02-05T13:08:44;4.70;74.40
2409;DHT22;8463;48.094;7.970;2023-02-05T13:13:51;4.70;74.30
2409;DHT22;8463;48.094;7.970;2023-02-05T13:16:19;4.70;74.30
2409;DHT22;8463;48.094;7.970;2023-02-05T13:18:59;4.70;74.20
2409;DHT22;8463;48.094;7.970;2023-02-05T13:21:26;4.70;74.30
2409;DHT22;8463;48.094;7.970;2023-02-05T13:24:27;4.70;74.30
2409;DHT22;8463;48.094;7.970;2023-02-05T13:27:25;4.70;74.20
2409;DHT22;8463;48.094;7.970;2023-02-05T13:30:20;4.70;74.00
2409;DHT22;8463;48.094;7.970;2023-02-05T13:32:51;4.70;74.10
2409;DHT22;8463;48.094;7.970;2023-02-05T13:35:17;4.70;73.80
2409;DHT22;8463;48.094;7.970;2023-02-05T13:40:42;4.70;73.70
2409;DHT22;8463;48.094;7.970;2023-02-05T13:49:03;4.90;73.90
2409;DHT22;8463;48.094;7.970;2023-02-05T13:51:39;4.80;73.60
2409;DHT22;8463;48.094;7.970;2023-02-05T13:54:45;4.80;73.60
2409;DHT22;8463;48.094;7.970;2023-02-05T14:00:21;4.70;73.50
2409;DHT22;8463;48.094;7.970;2023-02-05T14:02:48;4.70;73.60
2409;DHT22;8463;48.094;7.970;2023-02-05T14:05:33;4.80;73.70
2409;DHT22;8463;48.094;7.970;2023-02-05T14:08:00;4.80;73.60
2409;DHT22;8463;48.094;7.970;2023-02-05T14:13:21;4.70;73.60
2409;DHT22;8463;48.094;7.970;2023-02-05T14:15:49;4.70;74.00
2409;DHT22;8463;48.094;7.970;2023-02-05T14:29:41;4.60;73.70
2409;DHT22;8463;48.094;7.970;2023-02-05T14:37:44;4.60;74.40
2409;DHT22;8463;48.094;7.970;2023-02-05T14:40:25;4.60;74.60
2409;DHT22;8463;48.094;7.970;2023-02-05T14:42:54;4.60;74.90
2409;DHT22;8463;48.094;7.970;2023-02-05T14:45:22;4.50;73.20
2409;DHT22;8463;48.094;7.970;2023-02-05T14:47:49;4.50;73.70
2409;DHT22;8463;48.094;7.970;2023-02-05T14:50:22;4.50;74.50
2409;DHT22;8463;48.094;7.970;2023-02-05T14:52:52;4.60;75.30
2409;DHT22;8463;48.094;7.970;2023-02-05T14:55:23;4.50;76.10
2409;DHT22;8463;48.094;7.970;2023-02-05T14:57:56;4.40;74.90
2409;DHT22;8463;48.094;7.970;2023-02-05T15:00:24;4.30;75.20
2409;DHT22;8463;48.094;7.970;2023-02-05T15:13:19;4.00;75.00
2409;DHT22;8463;48.094;7.970;2023-02-05T15:21:42;3.90;75.00
2409;DHT22;8463;48.094;7.970;2023-02-05T15:24:23;3.90;74.90
2409;DHT22;8463;48.094;7.970;2023-02-05T15:27:04;3.80;74.40
2409;DHT22;8463;48.094;7.970;2023-02-05T15:32:01;3.70;74.00
2409;DHT22;8463;48.094;7.970;2023-02-05T15:37:30;3.70;73.90
2409;DHT22;8463;48.094;7.970;2023-02-05T15:40:15;3.70;73.90
2409;DHT22;8463;48.094;7.970;2023-02-05T15:42:44;3.70;74.00
2409;DHT22;8463;48.094;7.970;2023-02-05T15:45:38;3.70;74.40
2409;DHT22;8463;48.094;7.970;2023-02-05T15:50:56;3.50;74.50
2409;DHT22;8463;48.094;7.970;2023-02-05T15:55:59;3.60;74.60
2409;DHT22;8463;48.094;7.970;2023-02-05T15:58:31;3.50;74.50
2409;DHT22;8463;48.094;7.970;2023-02-05T16:00:59;3.60;74.60
2409;DHT22;8463;48.094;7.970;2023-02-05T16:03:30;3.70;74.80
2409;DHT22;8463;48.094;7.970;2023-02-05T16:05:57;3.60;74.60
2409;DHT22;8463;48.094;7.970;2023-02-05T16:08:23;3.60;74.80
2409;DHT22;8463;48.094;7.970;2023-02-05T16:10:59;3.70;75.00
2409;DHT22;8463;48.094;7.970;2023-02-05T16:13:28;3.80;75.30
2409;DHT22;8463;48.094;7.970;2023-02-05T16:21:05;3.80;74.80
2409;DHT22;8463;48.094;7.970;2023-02-05T16:23:40;3.90;75.30
2409;DHT22;8463;48.094;7.970;2023-02-05T16:26:25;3.90;75.40
2409;DHT22;8463;48.094;7.970;2023-02-05T16:28:58;4.00;75.40
2409;DHT22;8463;48.094;7.970;2023-02-05T16:31:25;4.00;75.20
2409;DHT22;8463;48.094;7.970;2023-02-05T16:34:04;4.00;75.30
2409;DHT22;8463;48.094;7.970;2023-02-05T16:36:42;4.10;75.40
2409;DHT22;8463;48.094;7.970;2023-02-05T16:39:23;4.10;75.30
2409;DHT22;8463;48.094;7.970;2023-02-05T16:42:36;4.10;75.30
2409;DHT22;8463;48.094;7.970;2023-02-05T16:47:33;4.10;75.30
2409;DHT22;8463;48.094;7.970;2023-02-05T16:49:59;4.20;75.30
2409;DHT22;8463;48.094;7.970;2023-02-05T16:54:53;4.20;75.20
2409;DHT22;8463;48.094;7.970;2023-02-05T16:57:30;4.20;75.20
2409;DHT22;8463;48.094;7.970;2023-02-05T17:00:03;4.20;75.10
2409;DHT22;8463;48.094;7.970;2023-02-05T17:02:36;4.10;74.80
2409;DHT22;8463;48.094;7.970;2023-02-05T17:05:07;4.10;75.00
2409;DHT22;8463;48.094;7.970;2023-02-05T17:07:33;4.10;75.00
2409;DHT22;8463;48.094;7.970;2023-02-05T17:10:18;4.10;75.00
2409;DHT22;8463;48.094;7.970;2023-02-05T17:12:51;4.20;75.10
2409;DHT22;8463;48.094;7.970;2023-02-05T17:17:54;4.20;75.10
2409;DHT22;8463;48.094;7.970;2023-02-05T17:25:28;4.20;75.00
2409;DHT22;8463;48.094;7.970;2023-02-05T17:27:56;4.20;75.00
2409;DHT22;8463;48.094;7.970;2023-02-05T17:30:21;4.20;75.00
2409;DHT22;8463;48.094;7.970;2023-02-05T17:32:47;4.20;74.80
2409;DHT22;8463;48.094;7.970;2023-02-05T17:35:18;4.20;74.80
2409;DHT22;8463;48.094;7.970;2023-02-05T17:37:47;4.20;74.60
2409;DHT22;8463;48.094;7.970;2023-02-05T17:40:13;4.20;74.70
2409;DHT22;8463;48.094;7.970;2023-02-05T17:42:39;4.20;74.60
2409;DHT22;8463;48.094;7.970;2023-02-05T17:45:20;4.20;74.60
2409;DHT22;8463;48.094;7.970;2023-02-05T17:47:49;4.10;74.60
2409;DHT22;8463;48.094;7.970;2023-02-05T17:50:15;4.10;74.50
2409;DHT22;8463;48.094;7.970;2023-02-05T17:52:42;4.10;74.50
2409;DHT22;8463;48.094;7.970;2023-02-05T17:55:14;4.10;74.50
2409;DHT22;8463;48.094;7.970;2023-02-05T17:57:41;4.10;74.50
2409;DHT22;8463;48.094;7.970;2023-02-05T18:00:15;4.30;74.80
2409;DHT22;8463;48.094;7.970;2023-02-05T18:02:44;4.10;74.60
2409;DHT22;8463;48.094;7.970;2023-02-05T18:05:12;4.00;74.20
2409;DHT22;8463;48.094;7.970;2023-02-05T18:07:44;4.00;74.10
2409;DHT22;8463;48.094;7.970;2023-02-05T18:10:15;4.00;74.20
2409;DHT22;8463;48.094;7.970;2023-02-05T18:12:41;4.00;74.20
2409;DHT22;8463;48.094;7.970;2023-02-05T18:15:08;4.00;74.80
2409;DHT22;8463;48.094;7.970;2023-02-05T18:17:34;4.00;74.20
2409;DHT22;8463;48.094;7.970;2023-02-05T18:20:02;4.00;74.30
2409;DHT22;8463;48.094;7.970;2023-02-05T18:22:29;4.10;74.40
2409;DHT22;8463;48.094;7.970;2023-02-05T18:24:55;4.10;74.10
2409;DHT22;8463;48.094;7.970;2023-02-05T18:27:20;4.10;74.20
2409;DHT22;8463;48.094;7.970;2023-02-05T18:29:46;4.10;74.20
2409;DHT22;8463;48.094;7.970;2023-02-05T18:32:12;4.10;74.00
2409;DHT22;8463;48.094;7.970;2023-02-05T18:34:37;4.10;74.10
2409;DHT22;8463;48.094;7.970;2023-02-05T18:37:05;4.10;74.10
2409;DHT22;8463;48.094;7.970;2023-02-05T18:39:34;4.10;74.00
2409;DHT22;8463;48.094;7.970;2023-02-05T18:41:59;4.20;74.10
2409;DHT22;8463;48.094;7.970;2023-02-05T18:44:28;4.20;74.20
2409;DHT22;8463;48.094;7.970;2023-02-05T18:46:54;4.20;74.10
2409;DHT22;8463;48.094;7.970;2023-02-05T18:49:20;4.20;74.10
2409;DHT22;8463;48.094;7.970;2023-02-05T18:51:45;4.20;73.90
2409;DHT22;8463;48.094;7.970;2023-02-05T18:54:11;4.20;73.90
2409;DHT22;8463;48.094;7.970;2023-02-05T18:56:37;4.20;73.80
2409;DHT22;8463;48.094;7.970;2023-02-05T18:59:04;4.20;73.90
2409;DHT22;8463;48.094;7.970;2023-02-05T19:01:38;4.20;73.90
2409;DHT22;8463;48.094;7.970;2023-02-05T19:04:12;4.20;73.90
2409;DHT22;8463;48.094;7.970;2023-02-05T19:06:45;4.20;73.90
2409;DHT22;8463;48.094;7.970;2023-02-05T19:09:17;4.20;73.90
2409;DHT22;8463;48.094;7.970;2023-02-05T19:11:43;4.20;73.90
2409;DHT22;8463;48.094;7.970;2023-02-05T19:14:12;4.40;76.70
2409;DHT22;8463;48.094;7.970;2023-02-05T19:16:40;5.50;79.80
2409;DHT22;8463;48.094;7.970;2023-02-05T19:19:07;5.90;80.00
2409;DHT22;8463;48.094;7.970;2023-02-05T19:21:33;6.30;80.10
2409;DHT22;8463;48.094;7.970;2023-02-05T19:24:01;6.50;77.70
2409;DHT22;8463;48.094;7.970;2023-02-05T19:26:30;6.30;73.20
2409;DHT22;8463;48.094;7.970;2023-02-05T19:29:01;6.00;70.90
2409;DHT22;8463;48.094;7.970;2023-02-05T19:31:30;5.60;69.00
2409;DHT22;8463;48.094;7.970;2023-02-05T19:33:56;5.30;68.00
2409;DHT22;8463;48.094;7.970;2023-02-05T19:36:23;5.10;68.50